sensor_id;sensor_type;location;lat;lon;timestamp;pressure;altitude;pressure_sealevel;temperature;humidity
40650;BME280;26342;42.826;23.992;2024-02-16T00:00:00;95972.84;;;4.03;100.00
40650;BME280;26342;42.826;23.992;2024-02-16T00:02:26;95970.84;;;4.05;100.00
40650;BME280;26342;42.826;23.992;2024-02-16T00:04:52;95976.13;;;4.05;100.00
40650;BME280;26342;42.826;23.992;2024-02-16T00:07:17;95969.84;;;4.06;100.00
40650;BME280;26342;42.826;23.992;2024-02-16T00:09:42;95971.06;;;4.03;100.00
40650;BME280;26342;42.826;23.992;2024-02-16T00:12:08;95950.31;;;4.00;100.00
40650;BME280;26342;42.826;23.992;2024-02-16T00:14:33;95964.34;;;4.07;100.00
40650;BME280;26342;42.826;23.992;2024-02-16T00:16:59;95952.56;;;4.03;100.00
40650;BME280;26342;42.826;23.992;2024-02-16T00:19:24;95960.47;;;4.10;100.00
40650;BME280;26342;42.826;23.992;2024-02-16T00:21:50;95964.34;;;4.14;100.00
40650;BME280;26342;42.826;23.992;2024-02-16T00:24:16;95962.31;;;4.16;100.00
40650;BME280;26342;42.826;23.992;2024-02-16T00:26:41;95960.09;;;4.19;100.00
40650;BME280;26342;42.826;23.992;2024-02-16T00:29:08;95973.09;;;4.21;100.00
40650;BME280;26342;42.826;23.992;2024-02-16T00:31:34;95967.59;;;4.16;100.00
40650;BME280;26342;42.826;23.992;2024-02-16T00:33:59;95972.06;;;4.15;100.00
40650;BME280;26342;42.826;23.992;2024-02-16T00:36:26;95972.28;;;4.20;100.00
40650;BME280;26342;42.826;23.992;2024-02-16T00:38:52;95964.97;;;4.16;100.00
40650;BME280;26342;42.826;23.992;2024-02-16T00:41:22;95955.00;;;4.05;100.00
40650;BME280;26342;42.826;23.992;2024-02-16T00:43:48;95959.50;;;4.11;100.00
40650;BME280;26342;42.826;23.992;2024-02-16T00:46:13;95964.56;;;4.12;100.00
40650;BME280;26342;42.826;23.992;2024-02-16T00:48:39;95959.66;;;4.09;100.00
40650;BME280;26342;42.826;23.992;2024-02-16T00:51:04;95959.28;;;4.12;100.00
40650;BME280;26342;42.826;23.992;2024-02-16T00:53:30;95955.22;;;4.16;100.00
40650;BME280;26342;42.826;23.992;2024-02-16T00:55:55;95953.59;;;4.15;100.00
40650;BME280;26342;42.826;23.992;2024-02-16T00:58:21;95956.22;;;4.09;100.00
40650;BME280;26342;42.826;23.992;2024-02-16T01:00:46;95965.16;;;4.14;100.00
40650;BME280;26342;42.826;23.992;2024-02-16T01:03:12;95951.97;;;4.14;100.00
40650;BME280;26342;42.826;23.992;2024-02-16T01:05:40;95944.03;;;4.01;100.00
40650;BME280;26342;42.826;23.992;2024-02-16T01:08:06;95964.94;;;4.09;100.00
40650;BME280;26342;42.826;23.992;2024-02-16T01:10:32;95963.31;;;4.08;100.00
40650;BME280;26342;42.826;23.992;2024-02-16T01:12:57;95964.94;;;4.09;100.00
40650;BME280;26342;42.826;23.992;2024-02-16T01:15:23;95965.75;;;4.10;100.00
40650;BME280;26342;42.826;23.992;2024-02-16T01:17:49;95959.66;;;4.09;100.00
40650;BME280;26342;42.826;23.992;2024-02-16T01:20:15;95960.47;;;4.10;100.00
40650;BME280;26342;42.826;23.992;2024-02-16T01:22:40;95963.94;;;4.10;100.00
40650;BME280;26342;42.826;23.992;2024-02-16T01:25:07;95956.84;;;4.11;100.00
40650;BME280;26342;42.826;23.992;2024-02-16T01:27:33;95954.00;;;4.12;100.00
40650;BME280;26342;42.826;23.992;2024-02-16T01:29:59;95955.19;;;4.10;100.00
40650;BME280;26342;42.826;23.992;2024-02-16T01:32:25;95958.84;;;4.09;100.00
40650;BME280;26342;42.826;23.992;2024-02-16T01:34:51;95958.84;;;4.09;100.00
40650;BME280;26342;42.826;23.992;2024-02-16T01:37:16;95955.03;;;4.11;100.00
40650;BME280;26342;42.826;23.992;2024-02-16T01:39:42;95956.00;;;4.10;100.00
40650;BME280;26342;42.826;23.992;2024-02-16T01:42:07;95949.72;;;4.05;100.00
40650;BME280;26342;42.826;23.992;2024-02-16T01:44:32;95940.78;;;3.99;100.00
40650;BME280;26342;42.826;23.992;2024-02-16T01:46:58;95950.31;;;4.07;100.00
40650;BME280;26342;42.826;23.992;2024-02-16T01:49:23;95941.00;;;4.04;100.00
40650;BME280;26342;42.826;23.992;2024-02-16T01:51:49;95948.28;;;4.09;100.00
40650;BME280;26342;42.826;23.992;2024-02-16T01:54:15;95946.47;;;4.09;100.00
40650;BME280;26342;42.826;23.992;2024-02-16T01:56:43;95944.25;;;4.13;100.00
40650;BME280;26342;42.826;23.992;2024-02-16T01:59:09;95944.44;;;4.11;100.00
40650;BME280;26342;42.826;23.992;2024-02-16T02:01:34;95945.25;;;4.12;100.00
40650;BME280;26342;42.826;23.992;2024-02-16T02:04:00;95944.03;;;4.08;100.00
40650;BME280;26342;42.826;23.992;2024-02-16T02:06:26;95937.31;;;3.99;100.00
40650;BME280;26342;42.826;23.992;2024-02-16T02:08:51;95947.91;;;4.12;100.00
40650;BME280;26342;42.826;23.992;2024-02-16T02:11:17;95940.78;;;4.12;100.00
40650;BME280;26342;42.826;23.992;2024-02-16T02:13:42;95934.28;;;4.15;100.00
40650;BME280;26342;42.826;23.992;2024-02-16T02:16:09;95941.41;;;4.14;100.00
40650;BME280;26342;42.826;23.992;2024-02-16T02:18:35;95938.16;;;4.12;100.00
40650;BME280;26342;42.826;23.992;2024-02-16T02:21:00;95941.41;;;4.14;100.00
40650;BME280;26342;42.826;23.992;2024-02-16T02:23:26;95939.16;;;4.18;100.00
40650;BME280;26342;42.826;23.992;2024-02-16T02:25:51;95935.09;;;4.15;100.00
40650;BME280;26342;42.826;23.992;2024-02-16T02:28:16;95935.31;;;4.14;100.00
40650;BME280;26342;42.826;23.992;2024-02-16T02:30:43;95943.25;;;4.20;100.00
40650;BME280;26342;42.826;23.992;2024-02-16T02:33:10;95944.22;;;4.26;100.00
40650;BME280;26342;42.826;23.992;2024-02-16T02:35:37;95939.97;;;4.18;100.00
40650;BME280;26342;42.826;23.992;2024-02-16T02:38:03;95946.06;;;4.12;100.00
40650;BME280;26342;42.826;23.992;2024-02-16T02:40:30;95942.59;;;4.18;100.00
40650;BME280;26342;42.826;23.992;2024-02-16T02:42:55;95942.22;;;4.15;100.00
40650;BME280;26342;42.826;23.992;2024-02-16T02:45:20;95936.53;;;4.11;100.00
40650;BME280;26342;42.826;23.992;2024-02-16T02:47:46;95942.19;;;4.08;100.00
40650;BME280;26342;42.826;23.992;2024-02-16T02:50:12;95943.00;;;4.09;100.00
40650;BME280;26342;42.826;23.992;2024-02-16T02:52:37;95946.28;;;4.11;100.00
40650;BME280;26342;42.826;23.992;2024-02-16T02:55:03;95942.63;;;4.12;100.00
40650;BME280;26342;42.826;23.992;2024-02-16T02:57:29;95939.56;;;4.08;100.00
40650;BME280;26342;42.826;23.992;2024-02-16T03:00:05;95932.03;;;3.99;100.00
40650;BME280;26342;42.826;23.992;2024-02-16T03:02:32;95952.56;;;4.10;100.00
40650;BME280;26342;42.826;23.992;2024-02-16T03:04:57;95939.56;;;4.08;100.00
40650;BME280;26342;42.826;23.992;2024-02-16T03:07:22;95955.03;;;4.11;100.00
40650;BME280;26342;42.826;23.992;2024-02-16T03:09:48;95939.75;;;4.00;100.00
40650;BME280;26342;42.826;23.992;2024-02-16T03:12:13;95948.50;;;4.14;100.00
40650;BME280;26342;42.826;23.992;2024-02-16T03:14:38;95946.66;;;4.08;100.00
40650;BME280;26342;42.826;23.992;2024-02-16T03:17:04;95952.56;;;4.10;100.00
40650;BME280;26342;42.826;23.992;2024-02-16T03:19:29;95956.63;;;4.12;100.00
40650;BME280;26342;42.826;23.992;2024-02-16T03:21:55;95946.44;;;4.03;100.00
40650;BME280;26342;42.826;23.992;2024-02-16T03:24:20;95960.31;;;4.11;100.00
40650;BME280;26342;42.826;23.992;2024-02-16T03:26:47;95955.59;;;4.07;100.00
40650;BME280;26342;42.826;23.992;2024-02-16T03:29:13;95962.53;;;4.14;100.00
40650;BME280;26342;42.826;23.992;2024-02-16T03:31:38;95945.25;;;4.05;100.00
40650;BME280;26342;42.826;23.992;2024-02-16T03:34:03;95958.06;;;4.15;100.00
40650;BME280;26342;42.826;23.992;2024-02-16T03:36:29;95960.31;;;4.11;100.00
40650;BME280;26342;42.826;23.992;2024-02-16T03:38:56;95957.25;;;4.14;100.00
40650;BME280;26342;42.826;23.992;2024-02-16T03:41:22;95959.28;;;4.19;100.00
40650;BME280;26342;42.826;23.992;2024-02-16T03:43:49;95960.50;;;4.16;100.00
40650;BME280;26342;42.826;23.992;2024-02-16T03:46:15;95957.03;;;4.23;100.00
40650;BME280;26342;42.826;23.992;2024-02-16T03:48:40;95954.63;;;4.21;100.00
40650;BME280;26342;42.826;23.992;2024-02-16T03:51:06;95960.50;;;4.23;100.00
40650;BME280;26342;42.826;23.992;2024-02-16T03:53:32;95952.78;;;4.15;100.00
40650;BME280;26342;42.826;23.992;2024-02-16T03:55:57;95943.44;;;4.06;100.00
40650;BME280;26342;42.826;23.992;2024-02-16T03:58:24;95958.66;;;4.17;100.00
40650;BME280;26342;42.826;23.992;2024-02-16T04:00:49;95950.91;;;4.02;100.00
40650;BME280;26342;42.826;23.992;2024-02-16T04:03:16;95966.56;;;4.10;100.00
40650;BME280;26342;42.826;23.992;2024-02-16T04:05:42;95962.91;;;4.18;100.00
40650;BME280;26342;42.826;23.992;2024-02-16T04:08:07;95963.94;;;4.10;100.00
40650;BME280;26342;42.826;23.992;2024-02-16T04:10:34;95968.81;;;4.07;100.00
40650;BME280;26342;42.826;23.992;2024-02-16T04:13:00;95959.50;;;4.11;100.00
40650;BME280;26342;42.826;23.992;2024-02-16T04:15:26;95964.56;;;4.12;100.00
40650;BME280;26342;42.826;23.992;2024-02-16T04:17:52;95967.19;;;4.06;100.00
40650;BME280;26342;42.826;23.992;2024-02-16T04:20:18;95965.78;;;4.03;100.00
40650;BME280;26342;42.826;23.992;2024-02-16T04:22:43;95947.28;;;3.97;100.00
40650;BME280;26342;42.826;23.992;2024-02-16T04:25:09;95968.59;;;4.02;100.00
40650;BME280;26342;42.826;23.992;2024-02-16T04:27:35;95968.22;;;4.11;100.00
40650;BME280;26342;42.826;23.992;2024-02-16T04:30:01;95972.06;;;4.15;100.00
40650;BME280;26342;42.826;23.992;2024-02-16T04:32:27;95965.75;;;4.10;100.00
40650;BME280;26342;42.826;23.992;2024-02-16T04:34:52;95965.78;;;4.03;100.00
40650;BME280;26342;42.826;23.992;2024-02-16T04:37:18;95960.69;;;4.08;100.00
40650;BME280;26342;42.826;23.992;2024-02-16T04:39:44;95963.72;;;4.18;100.00
40650;BME280;26342;42.826;23.992;2024-02-16T04:42:10;95954.81;;;4.13;100.00
40650;BME280;26342;42.826;23.992;2024-02-16T04:44:39;95963.94;;;4.10;100.00
40650;BME280;26342;42.826;23.992;2024-02-16T04:47:05;95960.91;;;4.07;100.00
40650;BME280;26342;42.826;23.992;2024-02-16T04:49:30;95963.31;;;4.08;100.00
40650;BME280;26342;42.826;23.992;2024-02-16T04:51:56;95968.59;;;4.08;100.00
40650;BME280;26342;42.826;23.992;2024-02-16T04:54:21;95963.13;;;4.10;100.00
40650;BME280;26342;42.826;23.992;2024-02-16T04:56:48;95966.56;;;4.10;100.00
40650;BME280;26342;42.826;23.992;2024-02-16T04:59:14;95960.69;;;4.15;100.00
40650;BME280;26342;42.826;23.992;2024-02-16T05:01:39;95954.38;;;4.09;100.00
40650;BME280;26342;42.826;23.992;2024-02-16T05:04:05;95963.13;;;4.10;100.00
40650;BME280;26342;42.826;23.992;2024-02-16T05:06:32;95965.38;;;4.13;100.00
40650;BME280;26342;42.826;23.992;2024-02-16T05:08:57;95968.81;;;4.13;100.00
40650;BME280;26342;42.826;23.992;2024-02-16T05:11:23;95967.81;;;4.14;100.00
40650;BME280;26342;42.826;23.992;2024-02-16T05:13:50;95967.81;;;4.14;100.00
40650;BME280;26342;42.826;23.992;2024-02-16T05:16:15;95958.25;;;4.07;100.00
40650;BME280;26342;42.826;23.992;2024-02-16T05:18:41;95963.13;;;4.10;100.00
40650;BME280;26342;42.826;23.992;2024-02-16T05:21:06;95977.34;;;4.15;100.00
40650;BME280;26342;42.826;23.992;2024-02-16T05:23:32;95982.22;;;4.18;100.00
40650;BME280;26342;42.826;23.992;2024-02-16T05:25:58;95981.63;;;4.16;100.00
40650;BME280;26342;42.826;23.992;2024-02-16T05:28:23;95976.13;;;4.18;100.00
40650;BME280;26342;42.826;23.992;2024-02-16T05:30:48;95973.91;;;4.15;100.00
40650;BME280;26342;42.826;23.992;2024-02-16T05:33:14;95984.47;;;4.08;100.00
40650;BME280;26342;42.826;23.992;2024-02-16T05:35:40;95988.53;;;4.11;100.00
40650;BME280;26342;42.826;23.992;2024-02-16T05:38:06;95986.09;;;4.16;100.00
40650;BME280;26342;42.826;23.992;2024-02-16T05:40:46;95989.75;;;4.08;100.00
40650;BME280;26342;42.826;23.992;2024-02-16T05:43:22;95987.34;;;4.20;100.00
40650;BME280;26342;42.826;23.992;2024-02-16T05:45:48;95989.97;;;4.20;100.00
40650;BME280;26342;42.826;23.992;2024-02-16T05:48:14;95991.38;;;4.16;100.00
40650;BME280;26342;42.826;23.992;2024-02-16T05:50:39;95991.78;;;4.13;100.00
40650;BME280;26342;42.826;23.992;2024-02-16T05:53:06;96000.91;;;4.17;100.00
40650;BME280;26342;42.826;23.992;2024-02-16T05:55:31;96004.59;;;4.23;100.00
40650;BME280;26342;42.826;23.992;2024-02-16T05:57:57;95997.25;;;4.18;100.00
40650;BME280;26342;42.826;23.992;2024-02-16T06:00:22;96007.25;;;4.23;100.00
40650;BME280;26342;42.826;23.992;2024-02-16T06:02:47;95999.31;;;4.23;100.00
40650;BME280;26342;42.826;23.992;2024-02-16T06:05:13;96009.28;;;4.27;100.00
40650;BME280;26342;42.826;23.992;2024-02-16T06:07:38;96004.41;;;4.37;100.00
40650;BME280;26342;42.826;23.992;2024-02-16T06:10:05;96012.94;;;4.46;100.00
40650;BME280;26342;42.826;23.992;2024-02-16T06:12:33;96008.69;;;4.38;100.00
40650;BME280;26342;42.826;23.992;2024-02-16T06:14:58;96007.84;;;4.31;100.00
40650;BME280;26342;42.826;23.992;2024-02-16T06:17:24;96007.66;;;4.33;100.00
40650;BME280;26342;42.826;23.992;2024-02-16T06:19:50;96005.41;;;4.30;100.00
40650;BME280;26342;42.826;23.992;2024-02-16T06:22:16;96000.75;;;4.38;100.00
40650;BME280;26342;42.826;23.992;2024-02-16T06:24:41;96005.00;;;4.39;100.00
40650;BME280;26342;42.826;23.992;2024-02-16T06:27:07;96013.16;;;4.44;100.00
40650;BME280;26342;42.826;23.992;2024-02-16T06:29:36;96006.84;;;4.45;100.00
40650;BME280;26342;42.826;23.992;2024-02-16T06:32:01;96015.19;;;4.49;100.00
40650;BME280;26342;42.826;23.992;2024-02-16T06:34:30;96014.38;;;4.55;100.00
40650;BME280;26342;42.826;23.992;2024-02-16T06:36:56;96005.63;;;4.55;100.00
40650;BME280;26342;42.826;23.992;2024-02-16T06:39:22;96008.69;;;4.58;100.00
40650;BME280;26342;42.826;23.992;2024-02-16T06:41:47;96013.97;;;4.65;100.00
40650;BME280;26342;42.826;23.992;2024-02-16T06:44:15;96016.22;;;4.68;100.00
40650;BME280;26342;42.826;23.992;2024-02-16T06:46:44;96009.31;;;4.67;100.00
40650;BME280;26342;42.826;23.992;2024-02-16T06:49:09;96012.56;;;4.75;100.00
40650;BME280;26342;42.826;23.992;2024-02-16T06:51:36;96018.88;;;4.74;100.00
40650;BME280;26342;42.826;23.992;2024-02-16T06:54:02;96017.41;;;4.85;100.00
40650;BME280;26342;42.826;23.992;2024-02-16T06:56:28;96023.53;;;4.86;100.00
40650;BME280;26342;42.826;23.992;2024-02-16T06:58:53;96018.84;;;4.94;100.00
40650;BME280;26342;42.826;23.992;2024-02-16T07:01:19;96019.84;;;5.00;100.00
40650;BME280;26342;42.826;23.992;2024-02-16T07:03:44;96021.25;;;5.09;100.00
40650;BME280;26342;42.826;23.992;2024-02-16T07:06:10;96026.94;;;5.13;100.00
40650;BME280;26342;42.826;23.992;2024-02-16T07:08:36;96021.41;;;5.21;100.00
40650;BME280;26342;42.826;23.992;2024-02-16T07:11:02;96024.06;;;5.21;100.00
40650;BME280;26342;42.826;23.992;2024-02-16T07:13:28;96016.53;;;5.24;100.00
40650;BME280;26342;42.826;23.992;2024-02-16T07:15:54;96017.94;;;5.40;100.00
40650;BME280;26342;42.826;23.992;2024-02-16T07:18:20;96017.69;;;5.48;100.00
40650;BME280;26342;42.826;23.992;2024-02-16T07:20:46;96009.94;;;5.53;100.00
40650;BME280;26342;42.826;23.992;2024-02-16T07:23:12;96010.69;;;5.67;100.00
40650;BME280;26342;42.826;23.992;2024-02-16T07:25:40;96004.34;;;5.75;100.00
40650;BME280;26342;42.826;23.992;2024-02-16T07:28:06;96022.63;;;5.96;100.00
40650;BME280;26342;42.826;23.992;2024-02-16T07:30:31;96023.59;;;6.08;100.00
40650;BME280;26342;42.826;23.992;2024-02-16T07:32:58;96018.84;;;6.17;100.00
40650;BME280;26342;42.826;23.992;2024-02-16T07:35:23;96025.06;;;6.29;100.00
40650;BME280;26342;42.826;23.992;2024-02-16T07:37:50;96023.22;;;6.30;100.00
40650;BME280;26342;42.826;23.992;2024-02-16T07:40:19;96020.59;;;6.30;100.00
40650;BME280;26342;42.826;23.992;2024-02-16T07:42:45;96021.34;;;6.37;100.00
40650;BME280;26342;42.826;23.992;2024-02-16T07:45:11;96025.88;;;6.30;100.00
40650;BME280;26342;42.826;23.992;2024-02-16T07:47:42;96034.88;;;6.29;100.00
40650;BME280;26342;42.826;23.992;2024-02-16T07:50:09;96029.31;;;6.37;100.00
40650;BME280;26342;42.826;23.992;2024-02-16T07:52:34;96029.03;;;6.45;100.00
40650;BME280;26342;42.826;23.992;2024-02-16T07:55:00;96035.72;;;6.54;100.00
40650;BME280;26342;42.826;23.992;2024-02-16T07:57:26;96031.97;;;6.62;100.00
40650;BME280;26342;42.826;23.992;2024-02-16T07:59:52;96010.50;;;6.45;100.00
40650;BME280;26342;42.826;23.992;2024-02-16T08:02:17;96031.13;;;6.68;100.00
40650;BME280;26342;42.826;23.992;2024-02-16T08:04:47;96028.38;;;6.81;100.00
40650;BME280;26342;42.826;23.992;2024-02-16T08:07:13;96014.38;;;6.92;100.00
40650;BME280;26342;42.826;23.992;2024-02-16T08:09:38;96027.56;;;7.06;100.00
40650;BME280;26342;42.826;23.992;2024-02-16T08:12:04;96013.75;;;6.97;100.00
40650;BME280;26342;42.826;23.992;2024-02-16T08:14:35;96015.09;;;7.06;100.00
40650;BME280;26342;42.826;23.992;2024-02-16T08:17:00;96037.31;;;7.30;100.00
40650;BME280;26342;42.826;23.992;2024-02-16T08:19:32;96035.03;;;7.34;100.00
40650;BME280;26342;42.826;23.992;2024-02-16T08:21:59;96035.13;;;7.45;100.00
40650;BME280;26342;42.826;23.992;2024-02-16T08:24:24;96032.31;;;7.59;100.00
40650;BME280;26342;42.826;23.992;2024-02-16T08:26:50;96035.19;;;7.75;100.00
40650;BME280;26342;42.826;23.992;2024-02-16T08:29:16;96039.28;;;7.90;100.00
40650;BME280;26342;42.826;23.992;2024-02-16T08:31:41;96030.03;;;8.10;100.00
40650;BME280;26342;42.826;23.992;2024-02-16T08:34:09;96032.03;;;8.15;100.00
40650;BME280;26342;42.826;23.992;2024-02-16T08:36:35;96025.47;;;8.29;100.00
40650;BME280;26342;42.826;23.992;2024-02-16T08:39:01;96020.16;;;8.29;100.00
40650;BME280;26342;42.826;23.992;2024-02-16T08:41:26;96032.22;;;8.62;100.00
40650;BME280;26342;42.826;23.992;2024-02-16T08:43:52;96027.25;;;8.65;100.00
40650;BME280;26342;42.826;23.992;2024-02-16T08:46:17;96034.75;;;8.68;100.00
40650;BME280;26342;42.826;23.992;2024-02-16T08:48:44;96035.94;;;8.84;100.00
40650;BME280;26342;42.826;23.992;2024-02-16T08:51:10;96037.00;;;9.07;100.00
40650;BME280;26342;42.826;23.992;2024-02-16T08:53:36;96038.78;;;9.25;100.00
40650;BME280;26342;42.826;23.992;2024-02-16T08:56:01;96032.38;;;9.49;100.00
40650;BME280;26342;42.826;23.992;2024-02-16T08:58:27;96033.84;;;9.80;100.00
40650;BME280;26342;42.826;23.992;2024-02-16T09:00:52;96035.22;;;9.83;100.00
40650;BME280;26342;42.826;23.992;2024-02-16T09:03:18;96036.94;;;9.89;100.00
40650;BME280;26342;42.826;23.992;2024-02-16T09:05:43;96036.63;;;10.25;100.00
40650;BME280;26342;42.826;23.992;2024-02-16T09:08:09;96030.19;;;10.38;100.00
40650;BME280;26342;42.826;23.992;2024-02-16T09:10:35;96044.63;;;10.54;100.00
40650;BME280;26342;42.826;23.992;2024-02-16T09:13:01;96045.59;;;10.65;100.00
40650;BME280;26342;42.826;23.992;2024-02-16T09:15:26;96052.25;;;10.79;100.00
40650;BME280;26342;42.826;23.992;2024-02-16T09:17:52;96043.03;;;10.86;100.00
40650;BME280;26342;42.826;23.992;2024-02-16T09:20:18;96044.34;;;10.84;100.00
40650;BME280;26342;42.826;23.992;2024-02-16T09:22:48;96040.66;;;10.73;100.00
40650;BME280;26342;42.826;23.992;2024-02-16T09:25:14;96038.19;;;11.00;100.00
40650;BME280;26342;42.826;23.992;2024-02-16T09:27:40;96042.47;;;11.01;100.00
40650;BME280;26342;42.826;23.992;2024-02-16T09:30:07;96046.91;;;11.12;100.00
40650;BME280;26342;42.826;23.992;2024-02-16T09:32:35;96041.41;;;11.19;100.00
40650;BME280;26342;42.826;23.992;2024-02-16T09:35:01;96037.63;;;11.15;100.00
40650;BME280;26342;42.826;23.992;2024-02-16T09:37:26;96041.56;;;11.12;100.00
40650;BME280;26342;42.826;23.992;2024-02-16T09:39:52;96045.06;;;10.96;100.00
40650;BME280;26342;42.826;23.992;2024-02-16T09:42:17;96035.94;;;10.92;100.00
40650;BME280;26342;42.826;23.992;2024-02-16T09:44:43;96041.59;;;10.96;100.00
40650;BME280;26342;42.826;23.992;2024-02-16T09:47:10;96015.44;;;10.81;100.00
40650;BME280;26342;42.826;23.992;2024-02-16T09:49:37;96041.97;;;10.87;100.00
40650;BME280;26342;42.826;23.992;2024-02-16T09:52:04;96028.06;;;10.69;100.00
40650;BME280;26342;42.826;23.992;2024-02-16T09:54:33;96031.16;;;10.77;100.00
40650;BME280;26342;42.826;23.992;2024-02-16T09:57:03;96037.03;;;10.79;100.00
40650;BME280;26342;42.826;23.992;2024-02-16T09:59:29;96040.66;;;10.73;100.00
40650;BME280;26342;42.826;23.992;2024-02-16T10:02:01;96029.94;;;10.68;100.00
40650;BME280;26342;42.826;23.992;2024-02-16T10:04:26;96033.72;;;10.72;100.00
40650;BME280;26342;42.826;23.992;2024-02-16T10:06:52;96028.94;;;10.74;100.00
40650;BME280;26342;42.826;23.992;2024-02-16T10:09:25;96032.44;;;10.75;100.00
40650;BME280;26342;42.826;23.992;2024-02-16T10:11:51;96028.06;;;10.69;100.00
40650;BME280;26342;42.826;23.992;2024-02-16T10:14:16;96029.81;;;10.63;100.00
40650;BME280;26342;42.826;23.992;2024-02-16T10:16:44;96024.50;;;10.63;100.00
40650;BME280;26342;42.826;23.992;2024-02-16T10:19:09;96019.50;;;10.67;100.00
40650;BME280;26342;42.826;23.992;2024-02-16T10:21:36;96012.59;;;10.71;100.00
40650;BME280;26342;42.826;23.992;2024-02-16T10:24:09;96010.69;;;10.83;100.00
40650;BME280;26342;42.826;23.992;2024-02-16T10:26:36;96011.72;;;10.82;100.00
40650;BME280;26342;42.826;23.992;2024-02-16T10:29:06;96010.75;;;10.88;100.00
40650;BME280;26342;42.826;23.992;2024-02-16T10:31:32;96006.97;;;10.84;97.39
40650;BME280;26342;42.826;23.992;2024-02-16T10:34:06;96007.13;;;10.94;100.00
40650;BME280;26342;42.826;23.992;2024-02-16T10:36:33;95996.44;;;10.94;100.00
40650;BME280;26342;42.826;23.992;2024-02-16T10:39:00;95985.44;;;10.90;100.00
40650;BME280;26342;42.826;23.992;2024-02-16T10:41:29;95992.72;;;10.95;100.00
40650;BME280;26342;42.826;23.992;2024-02-16T10:44:00;95993.13;;;10.87;99.77
40650;BME280;26342;42.826;23.992;2024-02-16T10:46:27;95989.78;;;10.80;100.00
40650;BME280;26342;42.826;23.992;2024-02-16T10:48:52;95989.31;;;10.66;99.51
40650;BME280;26342;42.826;23.992;2024-02-16T10:51:22;95983.25;;;10.87;100.00
40650;BME280;26342;42.826;23.992;2024-02-16T10:53:51;95982.25;;;11.10;100.00
40650;BME280;26342;42.826;23.992;2024-02-16T10:56:26;95980.31;;;11.23;96.99
40650;BME280;26342;42.826;23.992;2024-02-16T10:58:53;95982.66;;;11.19;98.81
40650;BME280;26342;42.826;23.992;2024-02-16T11:01:19;95983.97;;;11.16;96.11
40650;BME280;26342;42.826;23.992;2024-02-16T11:03:44;95978.22;;;11.08;93.34
40650;BME280;26342;42.826;23.992;2024-02-16T11:06:17;95961.47;;;10.96;100.00
40650;BME280;26342;42.826;23.992;2024-02-16T11:08:43;95973.53;;;11.15;93.52
40650;BME280;26342;42.826;23.992;2024-02-16T11:11:08;95966.38;;;11.21;96.55
40650;BME280;26342;42.826;23.992;2024-02-16T11:13:37;95970.50;;;11.28;93.79
40650;BME280;26342;42.826;23.992;2024-02-16T11:16:09;95949.78;;;11.18;92.80
40650;BME280;26342;42.826;23.992;2024-02-16T11:18:39;95964.09;;;11.29;97.63
40650;BME280;26342;42.826;23.992;2024-02-16T11:21:05;95964.25;;;11.39;94.86
40650;BME280;26342;42.826;23.992;2024-02-16T11:23:35;95956.81;;;11.63;100.00
40650;BME280;26342;42.826;23.992;2024-02-16T11:26:04;95956.03;;;11.68;82.34
40650;BME280;26342;42.826;23.992;2024-02-16T11:28:32;95949.53;;;11.81;83.03
40650;BME280;26342;42.826;23.992;2024-02-16T11:30:59;95946.94;;;11.86;83.11
40650;BME280;26342;42.826;23.992;2024-02-16T11:33:25;95950.66;;;11.85;82.29
40650;BME280;26342;42.826;23.992;2024-02-16T11:35:57;95936.34;;;11.96;89.26
40650;BME280;26342;42.826;23.992;2024-02-16T11:38:23;95940.69;;;12.02;83.17
40650;BME280;26342;42.826;23.992;2024-02-16T11:41:00;95939.00;;;11.96;83.38
40650;BME280;26342;42.826;23.992;2024-02-16T11:43:26;95935.97;;;12.09;89.27
40650;BME280;26342;42.826;23.992;2024-02-16T11:45:52;95944.50;;;12.38;87.73
40650;BME280;26342;42.826;23.992;2024-02-16T11:48:22;95931.38;;;12.37;78.82
40650;BME280;26342;42.826;23.992;2024-02-16T11:50:48;95926.38;;;12.45;77.89
40650;BME280;26342;42.826;23.992;2024-02-16T11:53:17;95924.47;;;12.41;75.77
40650;BME280;26342;42.826;23.992;2024-02-16T11:55:48;95921.09;;;12.23;81.19
40650;BME280;26342;42.826;23.992;2024-02-16T11:58:17;95918.88;;;12.42;83.03
40650;BME280;26342;42.826;23.992;2024-02-16T12:00:46;95929.91;;;12.51;73.87
40650;BME280;26342;42.826;23.992;2024-02-16T12:03:25;95928.91;;;12.30;81.48
40650;BME280;26342;42.826;23.992;2024-02-16T12:05:53;95916.44;;;12.41;80.18
40650;BME280;26342;42.826;23.992;2024-02-16T12:08:19;95917.47;;;12.67;89.92
40650;BME280;26342;42.826;23.992;2024-02-16T12:10:47;95909.38;;;12.99;85.20
40650;BME280;26342;42.826;23.992;2024-02-16T12:13:13;95909.59;;;13.29;73.62
40650;BME280;26342;42.826;23.992;2024-02-16T12:15:38;95907.84;;;13.13;71.37
40650;BME280;26342;42.826;23.992;2024-02-16T12:18:04;95904.56;;;13.01;79.74
40650;BME280;26342;42.826;23.992;2024-02-16T12:20:30;95909.06;;;12.95;77.33
40650;BME280;26342;42.826;23.992;2024-02-16T12:22:59;95905.63;;;13.00;74.97
40650;BME280;26342;42.826;23.992;2024-02-16T12:25:27;95904.00;;;12.99;74.13
40650;BME280;26342;42.826;23.992;2024-02-16T12:27:52;95900.81;;;13.02;74.15
40650;BME280;26342;42.826;23.992;2024-02-16T12:30:18;95894.69;;;13.06;74.90
40650;BME280;26342;42.826;23.992;2024-02-16T12:32:43;95895.25;;;13.13;72.57
40650;BME280;26342;42.826;23.992;2024-02-16T12:35:08;95883.53;;;13.20;66.71
40650;BME280;26342;42.826;23.992;2024-02-16T12:37:34;95894.81;;;13.27;76.63
40650;BME280;26342;42.826;23.992;2024-02-16T12:40:00;95899.19;;;13.43;70.09
40650;BME280;26342;42.826;23.992;2024-02-16T12:42:27;95893.66;;;13.18;68.43